createdAt,value
2019-02-20T00:01:33.675Z,99.90
2019-02-20T00:04:01.160Z,99.90
2019-02-20T00:06:28.666Z,99.90
2019-02-20T00:08:56.187Z,99.90
2019-02-20T00:11:23.714Z,99.90
2019-02-20T00:13:51.226Z,99.90
2019-02-20T00:16:18.784Z,99.90
2019-02-20T00:18:46.311Z,99.90
2019-02-20T00:21:13.784Z,99.90
2019-02-20T00:23:41.289Z,99.90
2019-02-20T00:26:08.842Z,99.90
2019-02-20T00:28:36.367Z,99.90
2019-02-20T00:31:03.889Z,99.90
2019-02-20T00:33:31.408Z,99.90
2019-02-20T00:35:58.913Z,99.90
2019-02-20T00:38:26.463Z,99.90
2019-02-20T00:40:54.011Z,99.90
2019-02-20T00:43:21.553Z,99.90
2019-02-20T00:46:06.828Z,99.90
2019-02-20T00:48:53.846Z,99.90
2019-02-20T00:51:43.555Z,99.90
2019-02-20T00:54:11.093Z,99.90
2019-02-20T00:56:38.655Z,99.90
2019-02-20T00:59:06.144Z,99.90
2019-02-20T01:01:33.689Z,99.90
2019-02-20T01:04:01.194Z,99.90
2019-02-20T01:06:29.106Z,99.90
2019-02-20T01:08:56.863Z,99.90
2019-02-20T01:11:24.833Z,99.90
2019-02-20T01:13:52.334Z,99.90
2019-02-20T01:16:19.854Z,99.90
2019-02-20T01:18:47.404Z,99.90
2019-02-20T01:21:14.891Z,99.90
2019-02-20T01:23:42.409Z,99.90
2019-02-20T01:26:09.892Z,99.90
2019-02-20T01:28:37.452Z,99.90
2019-02-20T01:31:04.996Z,99.90
2019-02-20T01:33:32.538Z,99.90
2019-02-20T01:36:00.058Z,99.90
2019-02-20T01:38:27.607Z,99.90
2019-02-20T01:40:55.103Z,99.90
2019-02-20T01:43:22.650Z,99.90
2019-02-20T01:45:50.196Z,99.90
2019-02-20T01:48:17.742Z,99.90
2019-02-20T01:50:45.246Z,99.90
2019-02-20T01:53:12.767Z,99.90
2019-02-20T01:55:40.304Z,99.90
2019-02-20T01:58:07.828Z,99.90
2019-02-20T02:00:35.371Z,99.90
2019-02-20T02:03:02.864Z,99.90
2019-02-20T02:05:30.395Z,99.90
2019-02-20T02:07:57.911Z,99.90
2019-02-20T02:10:25.480Z,99.90
2019-02-20T02:12:52.974Z,99.90
2019-02-20T02:15:20.889Z,99.90
2019-02-20T02:17:48.506Z,99.90
2019-02-20T02:20:16.036Z,99.90
2019-02-20T02:22:43.559Z,99.90
2019-02-20T02:25:11.093Z,99.90
2019-02-20T02:27:38.577Z,99.90
2019-02-20T02:30:07.263Z,99.90
2019-02-20T02:32:34.766Z,99.90
2019-02-20T02:35:02.333Z,99.90
2019-02-20T02:37:29.877Z,99.90
2019-02-20T02:39:57.445Z,99.90
2019-02-20T02:42:25.021Z,99.90
2019-02-20T02:44:52.571Z,99.90
2019-02-20T02:47:20.098Z,99.90
2019-02-20T02:49:47.665Z,99.90
2019-02-20T02:52:15.260Z,99.90
2019-02-20T02:54:42.841Z,99.90
2019-02-20T02:57:10.462Z,99.90
2019-02-20T02:59:37.986Z,99.90
2019-02-20T03:02:05.501Z,99.90
2019-02-20T03:04:32.974Z,99.90
2019-02-20T03:07:00.505Z,99.90
2019-02-20T03:09:28.019Z,99.90
2019-02-20T03:11:55.548Z,99.90
2019-02-20T03:14:23.062Z,99.90
2019-02-20T03:16:50.674Z,99.90
2019-02-20T03:19:18.170Z,99.90
2019-02-20T03:21:45.688Z,99.90
2019-02-20T03:24:13.167Z,99.90
2019-02-20T03:26:40.693Z,99.90
2019-02-20T03:29:08.186Z,99.90
2019-02-20T03:31:35.750Z,99.90
2019-02-20T03:34:03.309Z,99.90
2019-02-20T03:36:30.896Z,99.90
2019-02-20T03:38:58.368Z,99.90
2019-02-20T03:41:25.901Z,99.90
2019-02-20T03:43:53.391Z,99.90
2019-02-20T03:46:20.925Z,99.90
2019-02-20T03:48:48.438Z,99.90
2019-02-20T03:51:15.987Z,99.90
2019-02-20T03:53:51.186Z,99.90
2019-02-20T03:56:12.773Z,99.90
2019-02-20T03:58:40.288Z,99.90
2019-02-20T04:01:20.027Z,99.90
2019-02-20T04:03:47.668Z,99.90
2019-02-20T04:06:15.140Z,99.90
2019-02-20T04:08:42.659Z,99.90
2019-02-20T04:11:10.126Z,99.90
2019-02-20T04:13:37.653Z,99.90
2019-02-20T04:16:05.179Z,99.90
2019-02-20T04:18:32.688Z,99.90
2019-02-20T04:21:00.171Z,99.90
2019-02-20T04:23:27.741Z,99.90
2019-02-20T04:25:55.213Z,99.90
2019-02-20T04:28:22.739Z,99.90
2019-02-20T04:30:50.235Z,99.90
2019-02-20T04:33:17.765Z,99.90
2019-02-20T04:35:45.600Z,99.90
2019-02-20T04:38:13.145Z,99.90
2019-02-20T04:40:40.662Z,99.90
2019-02-20T04:43:08.170Z,99.90
2019-02-20T04:45:35.669Z,99.90
2019-02-20T04:48:03.179Z,99.90
2019-02-20T04:50:30.659Z,99.90
2019-02-20T04:52:58.219Z,99.90
2019-02-20T04:55:25.714Z,99.90
2019-02-20T04:58:18.388Z,99.90
2019-02-20T05:00:45.875Z,99.90
2019-02-20T05:03:13.393Z,99.90
2019-02-20T05:05:40.863Z,99.90
2019-02-20T05:08:08.380Z,99.90
2019-02-20T05:10:35.926Z,99.90
2019-02-20T05:13:03.407Z,99.90
2019-02-20T05:15:30.937Z,99.90
2019-02-20T05:18:17.893Z,99.90
2019-02-20T05:20:45.389Z,99.90
2019-02-20T05:23:12.869Z,99.90
2019-02-20T05:25:40.415Z,99.90
2019-02-20T05:28:07.898Z,99.90
2019-02-20T05:30:35.914Z,99.90
2019-02-20T05:33:03.402Z,99.90
2019-02-20T05:35:30.896Z,99.90
2019-02-20T05:37:58.433Z,99.90
2019-02-20T05:40:25.919Z,99.90
2019-02-20T05:42:53.454Z,99.90
2019-02-20T05:45:20.942Z,99.90
2019-02-20T05:47:48.862Z,99.90
2019-02-20T05:50:16.419Z,99.90
2019-02-20T05:52:43.919Z,99.90
2019-02-20T05:55:11.501Z,99.90
2019-02-20T05:57:38.975Z,99.90
2019-02-20T06:00:07.524Z,99.90
2019-02-20T06:02:34.983Z,99.90
2019-02-20T06:05:02.512Z,99.90
2019-02-20T06:07:30.001Z,99.90
2019-02-20T06:09:57.562Z,99.90
2019-02-20T06:12:24.997Z,99.90
2019-02-20T06:14:52.458Z,99.90
2019-02-20T06:17:19.891Z,99.90
2019-02-20T06:19:47.371Z,99.90
2019-02-20T06:22:14.793Z,99.90
2019-02-20T06:24:44.304Z,99.90
2019-02-20T06:27:11.581Z,99.90
2019-02-20T06:29:39.028Z,99.90
2019-02-20T06:32:06.558Z,99.90
2019-02-20T06:34:34.006Z,99.90
2019-02-20T06:37:01.459Z,99.90
2019-02-20T06:39:28.920Z,99.90
2019-02-20T06:41:56.455Z,99.90
2019-02-20T06:44:23.922Z,99.90
2019-02-20T06:46:51.374Z,99.90
2019-02-20T06:49:18.800Z,99.90
2019-02-20T06:51:46.390Z,99.90
2019-02-20T06:54:13.855Z,99.90
2019-02-20T06:56:41.338Z,99.90
2019-02-20T06:59:08.788Z,99.90
2019-02-20T07:01:36.306Z,99.90
2019-02-20T07:04:03.731Z,99.90
2019-02-20T07:07:11.951Z,99.90
2019-02-20T07:10:23.010Z,99.90
2019-02-20T07:13:34.199Z,99.90
2019-02-20T07:16:33.697Z,99.90
2019-02-20T07:19:09.700Z,99.90
2019-02-20T07:22:26.767Z,99.90
2019-02-20T07:25:35.015Z,99.90
2019-02-20T07:28:49.631Z,99.90
2019-02-20T07:31:17.086Z,99.90
2019-02-20T07:33:44.558Z,99.90
2019-02-20T07:36:12.010Z,99.90
2019-02-20T07:38:39.503Z,99.90
2019-02-20T07:41:06.943Z,99.90
2019-02-20T07:43:34.395Z,99.90
2019-02-20T07:46:01.840Z,99.90
2019-02-20T07:48:29.308Z,99.90
2019-02-20T07:50:56.753Z,99.90
2019-02-20T07:53:24.223Z,99.90
2019-02-20T07:55:51.694Z,99.90
2019-02-20T07:58:19.147Z,99.90
2019-02-20T08:00:46.657Z,99.90
2019-02-20T08:03:14.098Z,99.90
2019-02-20T08:05:41.522Z,99.90
2019-02-20T08:08:08.984Z,99.90
2019-02-20T08:10:36.416Z,99.90
2019-02-20T08:13:03.913Z,99.90
2019-02-20T08:15:31.358Z,99.90
2019-02-20T08:17:59.689Z,99.90
2019-02-20T08:20:27.207Z,99.90
2019-02-20T08:22:54.639Z,99.90
2019-02-20T08:25:23.048Z,99.90
2019-02-20T08:27:50.730Z,99.90
2019-02-20T08:30:18.193Z,99.90
2019-02-20T08:32:45.643Z,99.90
2019-02-20T08:35:13.130Z,99.90
2019-02-20T08:37:40.574Z,99.90
2019-02-20T08:40:10.488Z,99.90
2019-02-20T08:42:37.912Z,99.90
2019-02-20T08:45:06.113Z,99.90
2019-02-20T08:47:33.556Z,99.90
2019-02-20T08:50:01.050Z,99.90
2019-02-20T08:52:28.487Z,99.90
2019-02-20T08:54:55.951Z,99.90
2019-02-20T08:57:23.397Z,99.90
2019-02-20T08:59:51.803Z,99.90
2019-02-20T09:02:19.243Z,99.90
2019-02-20T09:04:46.702Z,99.90
2019-02-20T09:07:14.186Z,99.90
2019-02-20T09:09:41.652Z,99.90
2019-02-20T09:12:09.106Z,99.50
2019-02-20T09:14:36.583Z,99.40
2019-02-20T09:17:04.047Z,98.90
2019-02-20T09:19:31.511Z,99.50
2019-02-20T09:21:59.307Z,99.80
2019-02-20T09:24:26.787Z,98.60
2019-02-20T09:26:54.248Z,98.20
2019-02-20T09:29:21.705Z,98.20
2019-02-20T09:31:49.171Z,98.20
2019-02-20T09:34:16.644Z,98.40
2019-02-20T09:36:44.099Z,97.90
2019-02-20T09:39:31.505Z,97.80
2019-02-20T09:41:59.005Z,97.20
2019-02-20T09:44:26.692Z,97.00
2019-02-20T09:46:54.182Z,96.80
2019-02-20T09:49:21.633Z,96.50
2019-02-20T09:51:49.099Z,96.30
2019-02-20T09:54:16.564Z,96.50
2019-02-20T09:56:44.045Z,96.60
2019-02-20T09:59:11.479Z,95.30
2019-02-20T10:01:39.257Z,94.70
2019-02-20T10:04:06.728Z,94.10
2019-02-20T10:06:34.216Z,93.70
2019-02-20T10:09:01.639Z,94.00
2019-02-20T10:11:29.136Z,94.60
2019-02-20T10:13:56.575Z,94.00
2019-02-20T10:16:24.049Z,94.10
2019-02-20T10:18:51.483Z,94.30
2019-02-20T10:21:18.963Z,94.30
2019-02-20T10:23:46.388Z,94.20
2019-02-20T10:26:13.881Z,94.60
2019-02-20T10:28:41.339Z,94.50
2019-02-20T10:31:08.838Z,93.50
2019-02-20T10:33:36.314Z,93.30
2019-02-20T10:36:03.767Z,91.80
2019-02-20T10:38:31.240Z,92.70
2019-02-20T10:40:58.675Z,92.30
2019-02-20T10:43:26.170Z,92.20
2019-02-20T10:45:53.619Z,91.30
2019-02-20T10:48:21.440Z,90.60
2019-02-20T10:50:48.884Z,90.30
2019-02-20T10:53:16.369Z,89.20
2019-02-20T10:55:43.814Z,89.30
2019-02-20T10:58:11.282Z,86.60
2019-02-20T11:00:38.734Z,84.30
2019-02-20T11:03:06.202Z,81.90
2019-02-20T11:05:33.651Z,82.30
2019-02-20T11:08:01.131Z,81.80
2019-02-20T11:10:28.570Z,80.40
2019-02-20T11:12:56.050Z,83.30
2019-02-20T11:15:23.540Z,82.90
2019-02-20T11:17:50.970Z,79.50
2019-02-20T11:20:18.436Z,80.30
2019-02-20T11:22:45.892Z,79.50
2019-02-20T11:25:13.348Z,78.60
2019-02-20T11:27:40.948Z,78.30
2019-02-20T11:30:12.580Z,79.30
2019-02-20T11:32:40.037Z,78.10
2019-02-20T11:35:07.655Z,77.80
2019-02-20T11:37:35.129Z,73.80
2019-02-20T11:40:02.799Z,70.30
2019-02-20T11:42:30.250Z,71.10
2019-02-20T11:44:57.715Z,70.00
2019-02-20T11:47:25.156Z,69.90
2019-02-20T11:49:52.643Z,69.70
2019-02-20T11:52:20.075Z,69.60
2019-02-20T11:54:47.526Z,69.70
2019-02-20T11:57:15.000Z,67.80
2019-02-20T11:59:42.467Z,68.50
2019-02-20T12:02:09.907Z,68.40
2019-02-20T12:04:37.364Z,69.80
2019-02-20T12:07:04.789Z,68.30
2019-02-20T12:09:32.255Z,68.00
2019-02-20T12:11:59.693Z,70.80
2019-02-20T12:14:27.187Z,69.00
2019-02-20T12:16:54.615Z,70.40
2019-02-20T12:19:23.560Z,73.50
2019-02-20T12:21:51.088Z,74.60
2019-02-20T12:24:18.556Z,76.00
2019-02-20T12:26:45.987Z,75.70
2019-02-20T12:29:13.480Z,73.70
2019-02-20T12:31:41.365Z,74.30
2019-02-20T12:34:08.847Z,75.50
2019-02-20T12:36:36.299Z,72.40
2019-02-20T12:39:04.402Z,70.70
2019-02-20T12:41:31.876Z,70.60
2019-02-20T12:43:59.371Z,69.30
2019-02-20T12:46:26.852Z,67.40
2019-02-20T12:48:54.324Z,66.10
2019-02-20T12:51:21.835Z,64.20
2019-02-20T12:53:49.283Z,62.10
2019-02-20T12:56:16.748Z,60.60
2019-02-20T12:58:44.248Z,61.20
2019-02-20T13:01:11.753Z,61.10
2019-02-20T13:03:39.237Z,60.20
2019-02-20T13:06:06.749Z,60.40
2019-02-20T13:08:34.269Z,58.40
2019-02-20T13:11:01.786Z,59.30
2019-02-20T13:13:29.258Z,59.50
2019-02-20T13:15:56.777Z,61.10
2019-02-20T13:18:24.855Z,61.60
2019-02-20T13:20:52.363Z,59.70
2019-02-20T13:23:20.226Z,57.80
2019-02-20T13:25:47.708Z,56.90
2019-02-20T13:28:15.187Z,56.00
2019-02-20T13:30:42.673Z,54.60
2019-02-20T13:33:10.551Z,52.80
2019-02-20T13:35:38.038Z,51.80
2019-02-20T13:38:05.554Z,52.40
2019-02-20T13:40:33.046Z,52.50
2019-02-20T13:43:01.016Z,55.20
2019-02-20T13:45:28.506Z,60.10
2019-02-20T13:47:56.417Z,63.50
2019-02-20T13:50:24.593Z,63.10
2019-02-20T13:52:52.773Z,62.50
2019-02-20T13:55:21.005Z,63.60
2019-02-20T13:57:48.609Z,65.50
2019-02-20T14:00:16.116Z,64.50
2019-02-20T14:02:43.857Z,65.20
2019-02-20T14:05:11.315Z,64.00
2019-02-20T14:07:39.584Z,64.60
2019-02-20T14:10:08.723Z,67.20
2019-02-20T14:12:36.245Z,66.70
2019-02-20T14:15:04.255Z,66.40
2019-02-20T14:17:31.790Z,66.00
2019-02-20T14:19:59.316Z,64.30
2019-02-20T14:22:26.822Z,61.30
2019-02-20T14:24:54.539Z,59.20
2019-02-20T14:27:22.080Z,58.00
2019-02-20T14:29:49.599Z,61.50
2019-02-20T14:32:17.385Z,62.60
2019-02-20T14:34:45.528Z,63.40
2019-02-20T14:37:14.499Z,64.50
2019-02-20T14:39:42.024Z,63.90
2019-02-20T14:42:09.503Z,64.30
2019-02-20T14:44:37.273Z,64.90
2019-02-20T14:47:04.830Z,65.60
2019-02-20T14:49:32.338Z,65.40
2019-02-20T14:51:59.852Z,65.60
2019-02-20T14:54:27.403Z,65.50
2019-02-20T14:56:54.877Z,66.20
2019-02-20T14:59:22.669Z,66.90
2019-02-20T15:01:50.314Z,66.90
2019-02-20T15:04:17.845Z,66.70
2019-02-20T15:06:45.311Z,66.80
2019-02-20T15:09:13.255Z,67.60
2019-02-20T15:11:40.743Z,67.90
2019-02-20T15:14:08.245Z,68.10
2019-02-20T15:16:35.750Z,70.40
2019-02-20T15:19:03.647Z,69.40
2019-02-20T15:21:31.129Z,68.20
2019-02-20T15:23:58.609Z,69.50
2019-02-20T15:26:26.071Z,70.00
2019-02-20T15:28:54.812Z,69.00
2019-02-20T15:31:22.345Z,69.70
2019-02-20T15:33:49.838Z,71.40
2019-02-20T15:36:18.350Z,70.70
2019-02-20T15:38:45.869Z,71.50
2019-02-20T15:41:13.356Z,72.70
2019-02-20T15:43:40.845Z,71.60
2019-02-20T15:46:08.340Z,71.40
2019-02-20T15:48:36.016Z,71.40
2019-02-20T15:51:03.516Z,71.40
2019-02-20T15:53:31.014Z,71.40
2019-02-20T15:55:58.881Z,70.80
2019-02-20T15:58:27.305Z,70.70
2019-02-20T16:00:54.851Z,70.60
2019-02-20T16:03:22.311Z,69.60
2019-02-20T16:05:49.835Z,68.40
2019-02-20T16:08:17.292Z,68.40
2019-02-20T16:10:44.783Z,68.70
2019-02-20T16:13:12.241Z,68.40
2019-02-20T16:15:39.740Z,68.80
2019-02-20T16:18:07.202Z,69.50
2019-02-20T16:20:34.774Z,70.20
2019-02-20T16:23:02.643Z,71.20
2019-02-20T16:25:30.164Z,71.80
2019-02-20T16:27:57.636Z,73.40
2019-02-20T16:30:25.122Z,73.20
2019-02-20T16:32:53.025Z,74.40
2019-02-20T16:35:20.551Z,75.30
2019-02-20T16:37:48.041Z,75.80
2019-02-20T16:40:15.564Z,76.20
2019-02-20T16:42:43.065Z,76.50
2019-02-20T16:45:17.963Z,77.20
2019-02-20T16:47:45.405Z,77.70
2019-02-20T16:50:13.175Z,78.10
2019-02-20T16:53:00.069Z,78.90
2019-02-20T16:55:27.548Z,79.80
2019-02-20T16:57:57.049Z,80.10
2019-02-20T17:00:24.405Z,80.80
2019-02-20T17:02:52.156Z,81.20
2019-02-20T17:05:19.800Z,81.10
2019-02-20T17:07:47.243Z,81.80
2019-02-20T17:10:15.402Z,82.10
2019-02-20T17:12:42.911Z,82.00
2019-02-20T17:15:10.991Z,82.00
2019-02-20T17:17:38.467Z,82.10
2019-02-20T17:20:07.736Z,82.10
2019-02-20T17:22:35.220Z,81.90
2019-02-20T17:25:02.876Z,82.00
2019-02-20T17:27:30.621Z,82.40
2019-02-20T17:29:58.039Z,83.10
2019-02-20T17:32:25.605Z,83.70
2019-02-20T17:34:53.012Z,83.90
2019-02-20T17:37:20.799Z,83.10
2019-02-20T17:39:49.290Z,83.70
2019-02-20T17:42:17.072Z,84.10
2019-02-20T17:44:44.534Z,84.20
2019-02-20T17:47:12.410Z,84.40
2019-02-20T17:49:39.883Z,85.40
2019-02-20T17:52:07.333Z,86.40
2019-02-20T17:54:35.190Z,87.10
2019-02-20T17:57:02.679Z,87.70
2019-02-20T17:59:30.162Z,89.80
2019-02-20T18:01:58.487Z,90.10
2019-02-20T18:04:26.231Z,90.30
2019-02-20T18:06:54.140Z,90.60
2019-02-20T18:09:21.585Z,90.80
2019-02-20T18:11:49.075Z,90.50
2019-02-20T18:14:16.531Z,90.50
2019-02-20T18:16:44.018Z,90.80
2019-02-20T18:19:11.488Z,91.00
2019-02-20T18:21:38.943Z,91.20
2019-02-20T18:24:06.403Z,91.40
2019-02-20T18:26:33.869Z,91.60
2019-02-20T18:29:01.355Z,91.80
2019-02-20T18:31:28.822Z,91.70
2019-02-20T18:33:56.320Z,91.50
2019-02-20T18:36:23.801Z,91.50
2019-02-20T18:38:51.326Z,91.50
2019-02-20T18:41:18.775Z,91.40
2019-02-20T18:43:46.277Z,91.50
2019-02-20T18:46:13.724Z,91.50
2019-02-20T18:48:41.365Z,91.50
2019-02-20T18:51:08.861Z,91.50
2019-02-20T18:53:36.356Z,91.70
2019-02-20T18:56:03.828Z,92.00
2019-02-20T18:58:33.934Z,91.70
2019-02-20T19:01:00.557Z,91.50
2019-02-20T19:03:28.041Z,91.90
2019-02-20T19:05:55.541Z,91.90
2019-02-20T19:08:44.011Z,92.10
2019-02-20T19:11:27.207Z,92.70
2019-02-20T19:14:16.658Z,93.10
2019-02-20T19:17:29.008Z,93.20
2019-02-20T19:20:08.776Z,93.40
2019-02-20T19:23:10.656Z,93.60
2019-02-20T19:26:21.980Z,93.70
2019-02-20T19:29:26.163Z,94.00
2019-02-20T19:32:33.040Z,94.10
2019-02-20T19:35:45.880Z,94.20
2019-02-20T19:38:46.236Z,94.30
2019-02-20T19:42:08.075Z,95.00
2019-02-20T19:45:14.507Z,94.90
2019-02-20T19:47:52.701Z,95.50
2019-02-20T19:50:47.054Z,95.70
2019-02-20T19:53:25.489Z,95.80
2019-02-20T19:56:10.245Z,96.10
2019-02-20T19:59:13.299Z,96.40
2019-02-20T20:02:28.131Z,96.30
2019-02-20T20:05:33.811Z,96.80
2019-02-20T20:08:24.757Z,96.80
2019-02-20T20:11:44.664Z,96.70
2019-02-20T20:14:29.924Z,97.00
2019-02-20T20:18:00.621Z,96.80
2019-02-20T20:20:37.296Z,96.40
2019-02-20T20:24:10.131Z,96.40
2019-02-20T20:27:00.910Z,96.50
2019-02-20T20:30:07.096Z,96.80
2019-02-20T20:33:17.863Z,97.10
2019-02-20T20:35:57.542Z,97.20
2019-02-20T20:38:54.896Z,97.40
2019-02-20T20:42:18.767Z,97.70
2019-02-20T20:45:16.983Z,97.70
2019-02-20T20:48:11.202Z,97.60
2019-02-20T20:51:04.649Z,97.80
2019-02-20T20:53:52.391Z,98.00
2019-02-20T20:56:57.274Z,97.80
2019-02-20T20:59:50.813Z,98.00
2019-02-20T21:02:31.770Z,98.20
2019-02-20T21:05:46.177Z,98.30
2019-02-20T21:08:23.677Z,98.20
2019-02-20T21:11:15.087Z,98.20
2019-02-20T21:14:17.823Z,98.50
2019-02-20T21:17:42.710Z,98.60
2019-02-20T21:20:47.982Z,98.70
2019-02-20T21:24:01.926Z,99.00
2019-02-20T21:26:51.473Z,99.30
2019-02-20T21:29:50.436Z,99.50
2019-02-20T21:32:57.210Z,99.80
2019-02-20T21:36:08.477Z,99.60
2019-02-20T21:39:13.525Z,99.90
2019-02-20T21:42:34.660Z,99.90
2019-02-20T21:45:33.788Z,99.90
2019-02-20T21:48:22.979Z,99.90
2019-02-20T21:51:35.110Z,99.90
2019-02-20T21:54:59.605Z,99.90
2019-02-20T21:58:08.066Z,99.90
2019-02-20T22:01:08.755Z,99.90
2019-02-20T22:04:27.515Z,99.90
2019-02-20T22:07:37.095Z,99.90
2019-02-20T22:10:33.686Z,99.90
2019-02-20T22:13:54.302Z,99.90
2019-02-20T22:17:18.366Z,99.90
2019-02-20T22:20:27.162Z,99.90
2019-02-20T22:23:01.106Z,99.90
2019-02-20T22:25:46.635Z,99.90
2019-02-20T22:29:06.599Z,99.90
2019-02-20T22:32:00.520Z,99.90
2019-02-20T22:35:06.389Z,99.90
2019-02-20T22:38:14.905Z,99.90
2019-02-20T22:41:11.680Z,99.90
2019-02-20T22:44:26.809Z,99.90
2019-02-20T22:47:07.627Z,99.90
2019-02-20T22:50:05.159Z,99.90
2019-02-20T22:52:40.276Z,99.90
2019-02-20T22:55:57.707Z,99.90
2019-02-20T22:58:42.523Z,99.90
2019-02-20T23:01:30.746Z,99.90
2019-02-20T23:04:34.882Z,99.90
2019-02-20T23:07:29.963Z,99.90
2019-02-20T23:10:50.247Z,99.90
2019-02-20T23:13:46.878Z,99.90
2019-02-20T23:16:14.318Z,99.90
2019-02-20T23:18:41.752Z,99.90
2019-02-20T23:21:09.203Z,99.90
2019-02-20T23:23:36.931Z,99.90
2019-02-20T23:26:04.391Z,99.90
2019-02-20T23:28:31.849Z,99.90
2019-02-20T23:30:59.333Z,99.90
2019-02-20T23:33:26.789Z,99.90
2019-02-20T23:35:54.229Z,99.90
2019-02-20T23:38:21.713Z,99.90
2019-02-20T23:40:49.136Z,99.90
2019-02-20T23:43:16.601Z,99.90
2019-02-20T23:45:44.020Z,99.90
2019-02-20T23:48:11.503Z,99.90
2019-02-20T23:50:38.930Z,99.90
2019-02-20T23:53:06.377Z,99.90
2019-02-20T23:55:33.803Z,99.90
2019-02-20T23:58:01.267Z,99.90
